createdAt,value
2018-10-07T00:00:23.325Z,70.66
2018-10-07T00:02:53.655Z,70.81
2018-10-07T00:05:24.020Z,70.81
2018-10-07T00:07:54.415Z,70.63
2018-10-07T00:10:24.771Z,70.89
2018-10-07T00:12:55.203Z,71.00
2018-10-07T00:15:25.558Z,71.05
2018-10-07T00:17:55.896Z,71.39
2018-10-07T00:20:26.247Z,71.47
2018-10-07T00:22:56.561Z,71.26
2018-10-07T00:25:26.907Z,71.43
2018-10-07T00:27:57.222Z,71.58
2018-10-07T00:30:27.699Z,71.56
2018-10-07T00:32:58.016Z,71.58
2018-10-07T00:35:28.446Z,71.73
2018-10-07T00:37:58.832Z,71.66
2018-10-07T00:40:29.165Z,71.63
2018-10-07T00:42:59.529Z,71.39
2018-10-07T00:45:30.863Z,71.47
2018-10-07T00:48:01.419Z,71.67
2018-10-07T00:50:31.741Z,71.62
2018-10-07T00:53:02.091Z,71.80
2018-10-07T00:55:32.685Z,72.13
2018-10-07T00:58:03.072Z,71.76
2018-10-07T01:00:33.436Z,72.34
2018-10-07T01:03:03.764Z,72.12
2018-10-07T01:05:34.067Z,72.70
2018-10-07T01:08:04.432Z,72.95
2018-10-07T01:10:34.789Z,72.46
2018-10-07T01:13:05.129Z,73.11
2018-10-07T01:15:35.439Z,73.20
2018-10-07T01:18:05.812Z,72.95
2018-10-07T01:20:36.181Z,72.97
2018-10-07T01:23:07.055Z,73.16
2018-10-07T01:25:37.435Z,73.14
2018-10-07T01:28:07.773Z,73.32
2018-10-07T01:30:38.142Z,73.37
2018-10-07T01:33:08.517Z,73.42
2018-10-07T01:35:38.890Z,73.72
2018-10-07T01:38:09.249Z,73.85
2018-10-07T01:40:39.612Z,73.61
2018-10-07T01:43:09.896Z,73.90
2018-10-07T01:45:40.251Z,74.10
2018-10-07T01:48:10.533Z,74.38
2018-10-07T01:50:40.924Z,73.99
2018-10-07T01:53:11.351Z,74.06
2018-10-07T01:55:41.694Z,74.07
2018-10-07T01:58:12.044Z,74.02
2018-10-07T02:00:42.373Z,74.58
2018-10-07T02:03:12.648Z,73.87
2018-10-07T02:05:43.038Z,73.99
2018-10-07T02:08:13.381Z,74.24
2018-10-07T02:10:43.682Z,74.20
2018-10-07T02:13:14.010Z,74.11
2018-10-07T02:15:44.384Z,73.98
2018-10-07T02:18:14.727Z,73.77
2018-10-07T02:20:45.138Z,74.10
2018-10-07T02:23:15.499Z,73.87
2018-10-07T02:25:45.859Z,74.12
2018-10-07T02:28:16.229Z,73.86
2018-10-07T02:30:46.543Z,73.91
2018-10-07T02:33:16.962Z,73.76
2018-10-07T02:35:47.293Z,73.49
2018-10-07T02:38:17.623Z,73.84
2018-10-07T02:40:47.875Z,73.76
2018-10-07T02:43:18.253Z,73.69
2018-10-07T02:45:48.558Z,74.02
2018-10-07T02:48:18.935Z,73.78
2018-10-07T02:50:49.295Z,73.68
2018-10-07T02:53:19.659Z,73.91
2018-10-07T02:55:50.224Z,74.14
2018-10-07T02:58:20.870Z,74.18
2018-10-07T03:00:51.212Z,74.45
2018-10-07T03:03:21.629Z,74.17
2018-10-07T03:05:51.977Z,74.28
2018-10-07T03:08:22.344Z,74.27
2018-10-07T03:10:52.694Z,74.38
2018-10-07T03:13:23.068Z,74.40
2018-10-07T03:15:53.404Z,74.40
2018-10-07T03:18:23.753Z,74.09
2018-10-07T03:20:54.078Z,73.59
2018-10-07T03:23:24.387Z,73.73
2018-10-07T03:25:54.747Z,74.54
2018-10-07T03:28:25.047Z,74.16
2018-10-07T03:30:55.496Z,74.04
2018-10-07T03:33:25.810Z,74.54
2018-10-07T03:35:56.098Z,75.00
2018-10-07T03:38:26.440Z,75.09
2018-10-07T03:40:57.091Z,75.41
2018-10-07T03:43:27.454Z,75.18
2018-10-07T03:45:57.776Z,75.60
2018-10-07T03:48:28.151Z,74.74
2018-10-07T03:50:58.532Z,74.90
2018-10-07T03:53:28.800Z,75.36
2018-10-07T03:55:59.193Z,75.69
2018-10-07T03:58:29.512Z,76.41
2018-10-07T04:00:59.943Z,76.92
2018-10-07T04:03:30.342Z,77.39
2018-10-07T04:06:00.671Z,76.85
2018-10-07T04:08:31.000Z,76.96
2018-10-07T04:11:01.334Z,77.85
2018-10-07T04:13:31.702Z,78.32
2018-10-07T04:16:02.005Z,78.07
2018-10-07T04:18:32.349Z,78.03
2018-10-07T04:21:02.691Z,79.33
2018-10-07T04:23:33.005Z,79.18
2018-10-07T04:26:03.301Z,79.70
2018-10-07T04:28:33.648Z,80.35
2018-10-07T04:31:03.927Z,79.97
2018-10-07T04:33:34.525Z,79.97
2018-10-07T04:36:04.859Z,79.00
2018-10-07T04:38:35.219Z,78.18
2018-10-07T04:41:05.530Z,78.33
2018-10-07T04:43:35.867Z,78.22
2018-10-07T04:46:06.512Z,78.35
2018-10-07T04:48:36.808Z,78.23
2018-10-07T04:51:07.458Z,78.45
2018-10-07T04:53:37.899Z,78.65
2018-10-07T04:56:08.267Z,78.79
2018-10-07T04:58:38.608Z,78.71
2018-10-07T05:01:08.963Z,78.45
2018-10-07T05:03:39.318Z,78.63
2018-10-07T05:06:09.739Z,78.76
2018-10-07T05:08:40.255Z,79.40
2018-10-07T05:11:10.786Z,78.91
2018-10-07T05:13:48.911Z,78.37
2018-10-07T05:16:35.356Z,78.59
2018-10-07T05:19:06.267Z,77.47
2018-10-07T05:21:36.613Z,76.19
2018-10-07T05:24:07.027Z,76.55
2018-10-07T05:26:37.431Z,76.21
2018-10-07T05:29:07.762Z,76.48
2018-10-07T05:31:38.100Z,75.87
2018-10-07T05:34:08.485Z,76.18
2018-10-07T05:36:38.829Z,75.89
2018-10-07T05:39:11.927Z,75.98
2018-10-07T05:41:42.232Z,75.95
2018-10-07T05:44:12.589Z,74.16
2018-10-07T05:46:42.877Z,73.81
2018-10-07T05:49:13.307Z,73.71
2018-10-07T05:51:43.560Z,74.21
2018-10-07T05:54:13.935Z,74.38
2018-10-07T05:56:44.271Z,73.68
2018-10-07T05:59:14.795Z,73.14
2018-10-07T06:01:46.179Z,72.08
2018-10-07T06:04:24.844Z,71.91
2018-10-07T06:06:57.559Z,71.92
2018-10-07T06:09:33.732Z,72.47
2018-10-07T06:12:04.239Z,72.70
2018-10-07T06:14:51.384Z,72.57
2018-10-07T06:17:21.710Z,73.71
2018-10-07T06:19:52.115Z,73.28
2018-10-07T06:22:22.848Z,73.09
2018-10-07T06:24:53.273Z,72.68
2018-10-07T06:27:23.693Z,73.52
2018-10-07T06:29:54.104Z,73.52
2018-10-07T06:32:24.464Z,73.61
2018-10-07T06:34:54.805Z,73.30
2018-10-07T06:37:25.107Z,72.98
2018-10-07T06:39:55.545Z,73.46
2018-10-07T06:42:25.923Z,73.07
2018-10-07T06:44:56.290Z,72.23
2018-10-07T06:47:26.644Z,72.27
2018-10-07T06:49:57.065Z,72.48
2018-10-07T06:52:27.408Z,72.30
2018-10-07T06:54:57.791Z,71.74
2018-10-07T06:57:28.369Z,72.27
2018-10-07T06:59:58.969Z,71.16
2018-10-07T07:02:29.507Z,71.23
2018-10-07T07:04:59.817Z,70.73
2018-10-07T07:07:30.167Z,70.58
2018-10-07T07:10:00.523Z,70.65
2018-10-07T07:12:45.608Z,70.44
2018-10-07T07:15:15.950Z,70.89
2018-10-07T07:17:46.336Z,70.73
2018-10-07T07:20:16.715Z,70.39
2018-10-07T07:22:47.027Z,71.02
2018-10-07T07:25:17.356Z,70.11
2018-10-07T07:27:47.727Z,69.70
2018-10-07T07:30:18.038Z,69.74
2018-10-07T07:32:48.356Z,69.44
2018-10-07T07:35:18.756Z,70.17
2018-10-07T07:37:49.218Z,69.84
2018-10-07T07:40:19.530Z,68.95
2018-10-07T07:42:49.933Z,69.36
2018-10-07T07:45:20.295Z,69.22
2018-10-07T07:47:50.662Z,69.31
2018-10-07T07:50:20.947Z,68.27
2018-10-07T07:52:51.483Z,68.59
2018-10-07T07:55:21.788Z,68.01
2018-10-07T07:57:52.141Z,67.98
2018-10-07T08:00:22.457Z,66.99
2018-10-07T08:02:52.775Z,66.07
2018-10-07T08:05:23.127Z,65.16
2018-10-07T08:07:53.564Z,63.15
2018-10-07T08:10:23.894Z,60.07
2018-10-07T08:12:54.271Z,58.28
2018-10-07T08:15:24.678Z,56.63
2018-10-07T08:17:55.138Z,54.55
2018-10-07T08:20:25.326Z,53.18
2018-10-07T08:22:55.623Z,51.81
2018-10-07T08:25:25.878Z,49.32
2018-10-07T08:27:56.276Z,47.62
2018-10-07T08:30:26.595Z,45.84
2018-10-07T08:32:56.954Z,45.14
2018-10-07T08:35:27.261Z,44.34
2018-10-07T08:37:57.602Z,42.88
2018-10-07T08:40:27.922Z,40.04
2018-10-07T08:42:58.243Z,39.02
2018-10-07T08:45:28.584Z,39.40
2018-10-07T08:47:58.975Z,38.42
2018-10-07T08:50:29.336Z,36.95
2018-10-07T08:52:59.659Z,36.26
2018-10-07T08:55:29.963Z,36.56
2018-10-07T08:58:00.283Z,35.57
2018-10-07T09:00:30.688Z,35.39
2018-10-07T09:03:01.050Z,35.03
2018-10-07T09:05:31.466Z,35.23
2018-10-07T09:08:01.916Z,35.02
2018-10-07T09:10:32.251Z,34.31
2018-10-07T09:13:02.634Z,34.54
2018-10-07T09:15:33.046Z,34.46
2018-10-07T09:18:03.385Z,33.17
2018-10-07T09:20:33.763Z,33.69
2018-10-07T09:23:04.175Z,34.10
2018-10-07T09:25:34.643Z,34.08
2018-10-07T09:28:05.125Z,33.28
2018-10-07T09:30:37.287Z,33.39
2018-10-07T09:33:07.546Z,33.69
2018-10-07T09:35:37.939Z,33.27
2018-10-07T09:38:08.319Z,33.00
2018-10-07T09:40:38.679Z,32.66
2018-10-07T09:43:08.952Z,33.11
2018-10-07T09:45:39.265Z,32.49
2018-10-07T09:48:09.722Z,31.98
2018-10-07T09:50:40.094Z,32.19
2018-10-07T09:53:10.478Z,30.87
2018-10-07T09:55:40.833Z,31.46
2018-10-07T09:58:11.253Z,30.21
2018-10-07T10:00:42.343Z,29.82
2018-10-07T10:03:12.963Z,29.97
2018-10-07T10:05:43.367Z,29.99
2018-10-07T10:08:13.664Z,30.10
2018-10-07T10:10:44.004Z,30.03
2018-10-07T10:13:14.379Z,30.61
2018-10-07T10:15:44.671Z,30.84
2018-10-07T10:18:51.201Z,30.70
2018-10-07T10:21:38.776Z,30.43
2018-10-07T10:27:26.243Z,29.70
2018-10-07T10:30:07.941Z,29.98
2018-10-07T10:32:55.003Z,30.04
2018-10-07T10:35:38.891Z,30.38
2018-10-07T10:38:25.598Z,29.67
2018-10-07T10:41:11.484Z,29.60
2018-10-07T10:43:57.210Z,29.57
2018-10-07T10:46:39.293Z,30.77
2018-10-07T10:49:21.022Z,29.74
2018-10-07T10:52:20.845Z,29.81
2018-10-07T10:54:58.861Z,28.89
2018-10-07T10:57:41.772Z,28.80
2018-10-07T11:00:50.939Z,28.33
2018-10-07T11:04:33.300Z,28.39
2018-10-07T11:07:25.180Z,27.66
2018-10-07T11:10:11.353Z,28.71
2018-10-07T11:12:55.931Z,29.73
2018-10-07T11:15:39.856Z,28.79
2018-10-07T11:19:29.666Z,28.12
2018-10-07T11:22:17.084Z,29.15
2018-10-07T11:26:04.848Z,28.88
2018-10-07T11:31:04.131Z,28.73
2018-10-07T11:34:16.277Z,27.89
2018-10-07T11:37:23.908Z,28.17
2018-10-07T11:40:11.266Z,27.61
2018-10-07T11:42:50.062Z,27.71
2018-10-07T11:45:31.870Z,27.15
2018-10-07T11:49:15.199Z,27.50
2018-10-07T11:51:58.847Z,27.79
2018-10-07T11:55:02.095Z,26.82
2018-10-07T11:57:32.397Z,27.34
2018-10-07T12:00:03.236Z,27.10
2018-10-07T12:02:33.565Z,27.34
2018-10-07T12:05:03.911Z,27.18
2018-10-07T12:07:34.304Z,26.95
2018-10-07T12:10:04.795Z,26.82
2018-10-07T12:12:35.076Z,26.49
2018-10-07T12:15:05.651Z,26.14
2018-10-07T12:17:36.032Z,26.49
2018-10-07T12:20:06.663Z,26.75
2018-10-07T12:22:36.985Z,26.92
2018-10-07T12:25:07.394Z,26.04
2018-10-07T12:27:37.731Z,25.68
2018-10-07T12:30:08.182Z,25.22
2018-10-07T12:32:38.556Z,25.86
2018-10-07T12:35:08.967Z,26.06
2018-10-07T12:37:39.293Z,25.88
2018-10-07T12:40:09.765Z,25.26
2018-10-07T12:42:40.116Z,25.36
2018-10-07T12:45:10.484Z,24.94
2018-10-07T12:47:40.853Z,25.14
2018-10-07T12:50:11.187Z,25.33
2018-10-07T12:52:42.363Z,25.45
2018-10-07T12:55:12.676Z,25.74
2018-10-07T12:57:43.046Z,25.03
2018-10-07T13:00:13.388Z,25.64
2018-10-07T13:02:43.729Z,25.10
2018-10-07T13:05:14.043Z,25.40
2018-10-07T13:07:44.380Z,25.42
2018-10-07T13:10:14.737Z,24.61
2018-10-07T13:12:45.052Z,24.25
2018-10-07T13:15:15.466Z,24.04
2018-10-07T13:17:45.812Z,24.56
2018-10-07T13:20:16.173Z,24.25
2018-10-07T13:22:46.545Z,25.18
2018-10-07T13:25:16.926Z,24.33
2018-10-07T13:27:47.283Z,24.87
2018-10-07T13:30:17.640Z,24.82
2018-10-07T13:32:47.945Z,24.88
2018-10-07T13:35:18.288Z,24.51
2018-10-07T13:37:48.598Z,24.43
2018-10-07T13:40:18.923Z,25.13
2018-10-07T13:42:49.231Z,25.32
2018-10-07T13:45:19.588Z,25.79
2018-10-07T13:47:49.974Z,25.32
2018-10-07T13:50:20.272Z,24.92
2018-10-07T13:52:50.559Z,25.26
2018-10-07T13:55:20.905Z,25.06
2018-10-07T13:57:51.231Z,24.98
2018-10-07T14:00:21.513Z,25.45
2018-10-07T14:02:51.884Z,25.71
2018-10-07T14:07:59.860Z,25.40
2018-10-07T14:10:30.157Z,25.44
2018-10-07T14:13:00.459Z,26.03
2018-10-07T14:15:30.780Z,25.65
2018-10-07T14:18:01.049Z,26.00
2018-10-07T14:20:31.407Z,25.28
2018-10-07T14:23:01.781Z,25.37
2018-10-07T14:25:32.166Z,24.78
2018-10-07T14:28:02.531Z,24.75
2018-10-07T14:30:32.875Z,24.22
2018-10-07T14:33:03.212Z,24.38
2018-10-07T14:35:33.569Z,24.75
2018-10-07T14:38:03.952Z,25.23
2018-10-07T14:40:34.224Z,26.34
2018-10-07T14:43:04.630Z,25.45
2018-10-07T14:45:34.936Z,25.81
2018-10-07T14:48:05.259Z,25.78
2018-10-07T14:50:35.619Z,25.44
2018-10-07T14:53:06.188Z,25.17
2018-10-07T14:55:36.518Z,25.06
2018-10-07T14:58:07.284Z,25.63
2018-10-07T15:00:37.712Z,25.20
2018-10-07T15:03:08.055Z,25.13
2018-10-07T15:05:38.355Z,25.35
2018-10-07T15:08:08.698Z,26.43
2018-10-07T15:10:39.049Z,26.74
2018-10-07T15:13:09.380Z,27.05
2018-10-07T15:15:39.704Z,27.99
2018-10-07T15:18:10.001Z,28.02
2018-10-07T15:20:40.343Z,28.84
2018-10-07T15:23:10.622Z,29.29
2018-10-07T15:25:40.930Z,30.08
2018-10-07T15:28:11.279Z,30.54
2018-10-07T15:30:41.613Z,31.01
2018-10-07T15:33:11.932Z,31.58
2018-10-07T15:35:42.321Z,32.17
2018-10-07T15:38:12.670Z,32.67
2018-10-07T15:40:42.984Z,33.57
2018-10-07T15:43:13.362Z,33.69
2018-10-07T15:45:43.779Z,34.40
2018-10-07T15:48:14.128Z,34.46
2018-10-07T15:50:44.447Z,34.58
2018-10-07T15:53:14.806Z,35.01
2018-10-07T15:55:45.126Z,35.24
2018-10-07T15:58:15.464Z,35.65
2018-10-07T16:00:45.781Z,34.89
2018-10-07T16:03:16.095Z,34.45
2018-10-07T16:05:46.465Z,34.05
2018-10-07T16:08:16.865Z,34.20
2018-10-07T16:10:47.276Z,35.08
2018-10-07T16:13:17.587Z,35.47
2018-10-07T16:15:47.897Z,35.80
2018-10-07T16:18:18.291Z,36.52
2018-10-07T16:20:48.614Z,36.67
2018-10-07T16:23:19.123Z,37.17
2018-10-07T16:25:49.580Z,37.34
2018-10-07T16:28:19.992Z,38.12
2018-10-07T16:30:50.662Z,38.77
2018-10-07T16:33:21.151Z,39.52
2018-10-07T16:35:51.541Z,39.81
2018-10-07T16:38:21.901Z,39.75
2018-10-07T16:40:52.323Z,40.68
2018-10-07T16:43:22.688Z,40.96
2018-10-07T16:45:53.049Z,40.77
2018-10-07T16:48:23.396Z,41.64
2018-10-07T16:50:53.743Z,41.96
2018-10-07T16:53:24.116Z,42.23
2018-10-07T16:55:54.446Z,42.29
2018-10-07T16:58:24.787Z,43.13
2018-10-07T17:00:55.128Z,43.45
2018-10-07T17:03:25.477Z,43.24
2018-10-07T17:05:55.860Z,43.73
2018-10-07T17:08:26.184Z,44.25
2018-10-07T17:10:56.504Z,44.62
2018-10-07T17:13:26.917Z,44.91
2018-10-07T17:15:57.193Z,45.31
2018-10-07T17:18:27.519Z,45.51
2018-10-07T17:20:57.917Z,45.38
2018-10-07T17:23:28.210Z,45.84
2018-10-07T17:25:58.549Z,45.70
2018-10-07T17:28:28.849Z,45.86
2018-10-07T17:30:59.194Z,46.46
2018-10-07T17:33:29.563Z,46.53
2018-10-07T17:36:00.628Z,46.76
2018-10-07T17:38:30.995Z,47.00
2018-10-07T17:41:01.352Z,47.40
2018-10-07T17:43:31.669Z,47.39
2018-10-07T17:46:02.055Z,47.60
2018-10-07T17:48:32.422Z,47.73
2018-10-07T17:51:02.700Z,47.84
2018-10-07T17:53:32.995Z,47.99
2018-10-07T17:56:03.349Z,48.48
2018-10-07T17:58:33.666Z,48.79
2018-10-07T18:01:04.039Z,49.17
2018-10-07T18:03:34.395Z,49.34
2018-10-07T18:06:04.735Z,49.82
2018-10-07T18:08:35.117Z,50.38
2018-10-07T18:11:05.541Z,50.55
2018-10-07T18:14:06.549Z,51.01
2018-10-07T18:16:36.906Z,50.45
2018-10-07T18:19:07.320Z,51.07
2018-10-07T18:21:37.681Z,51.02
2018-10-07T18:24:08.064Z,50.96
2018-10-07T18:26:38.430Z,51.48
2018-10-07T18:29:08.837Z,51.67
2018-10-07T18:31:39.179Z,52.40
2018-10-07T18:34:09.548Z,53.03
2018-10-07T18:36:39.957Z,53.06
2018-10-07T18:39:10.278Z,52.97
2018-10-07T18:41:40.980Z,52.92
2018-10-07T18:44:11.333Z,52.95
2018-10-07T18:46:41.669Z,53.31
2018-10-07T18:49:12.075Z,53.32
2018-10-07T18:51:42.482Z,53.50
2018-10-07T18:54:12.836Z,53.77
2018-10-07T18:56:43.154Z,54.07
2018-10-07T18:59:13.540Z,54.04
2018-10-07T19:01:43.890Z,54.70
2018-10-07T19:04:14.896Z,54.35
2018-10-07T19:06:45.560Z,54.64
2018-10-07T19:09:15.909Z,54.66
2018-10-07T19:11:46.303Z,54.77
2018-10-07T19:14:16.678Z,54.66
2018-10-07T19:16:46.973Z,55.20
2018-10-07T19:19:17.336Z,55.30
2018-10-07T19:21:47.632Z,55.27
2018-10-07T19:24:17.995Z,54.98
2018-10-07T19:26:48.317Z,55.22
2018-10-07T19:29:18.633Z,54.96
2018-10-07T19:31:48.987Z,55.31
2018-10-07T19:34:19.344Z,55.11
2018-10-07T19:36:49.676Z,55.19
2018-10-07T19:39:20.060Z,55.07
2018-10-07T19:41:50.390Z,55.19
2018-10-07T19:44:20.765Z,54.67
2018-10-07T19:46:51.079Z,55.27
2018-10-07T19:49:21.384Z,55.44
2018-10-07T19:51:51.728Z,55.67
2018-10-07T19:54:22.165Z,56.39
2018-10-07T19:56:52.507Z,56.25
2018-10-07T19:59:22.965Z,56.52
2018-10-07T20:01:53.279Z,56.39
2018-10-07T20:04:23.651Z,56.31
2018-10-07T20:06:53.977Z,56.29
2018-10-07T20:09:24.286Z,56.56
2018-10-07T20:11:54.586Z,56.27
2018-10-07T20:14:24.962Z,56.45
2018-10-07T20:16:55.272Z,56.72
2018-10-07T20:19:25.725Z,56.93
2018-10-07T20:21:55.960Z,57.80
2018-10-07T20:24:26.287Z,58.01
2018-10-07T20:26:56.691Z,58.70
2018-10-07T20:29:27.025Z,58.38
2018-10-07T20:31:57.304Z,57.76
2018-10-07T20:34:27.651Z,58.01
2018-10-07T20:36:58.077Z,58.86
2018-10-07T20:39:28.371Z,58.96
2018-10-07T20:41:58.719Z,59.23
2018-10-07T20:44:29.070Z,59.61
2018-10-07T20:46:59.380Z,59.80
2018-10-07T20:49:29.712Z,59.53
2018-10-07T20:52:00.106Z,59.97
2018-10-07T20:54:30.518Z,60.18
2018-10-07T20:57:01.199Z,60.62
2018-10-07T20:59:31.475Z,60.91
2018-10-07T21:02:01.817Z,60.61
2018-10-07T21:04:32.240Z,60.79
2018-10-07T21:07:02.614Z,60.85
2018-10-07T21:09:32.959Z,61.09
2018-10-07T21:12:03.321Z,60.88
2018-10-07T21:14:33.751Z,60.71
2018-10-07T21:17:04.416Z,61.07
2018-10-07T21:19:34.840Z,61.24
2018-10-07T21:22:05.195Z,61.26
2018-10-07T21:24:35.584Z,60.97
2018-10-07T21:27:06.037Z,61.34
2018-10-07T21:29:36.483Z,61.55
2018-10-07T21:32:06.887Z,61.82
2018-10-07T21:34:37.226Z,61.79
2018-10-07T21:37:07.889Z,61.93
2018-10-07T21:39:38.238Z,62.05
2018-10-07T21:42:09.056Z,62.31
2018-10-07T21:44:39.777Z,62.21
2018-10-07T21:47:10.383Z,61.97
2018-10-07T21:49:41.112Z,62.10
2018-10-07T21:52:11.886Z,62.49
2018-10-07T21:54:42.543Z,62.64
2018-10-07T21:57:13.941Z,62.23
2018-10-07T21:59:44.706Z,62.64
2018-10-07T22:02:15.370Z,62.63
2018-10-07T22:04:46.060Z,62.65
2018-10-07T22:07:19.909Z,62.99
2018-10-07T22:09:50.688Z,63.37
2018-10-07T22:12:21.340Z,63.04
2018-10-07T22:14:51.965Z,62.44
2018-10-07T22:17:22.603Z,62.80
2018-10-07T22:19:53.255Z,63.62
2018-10-07T22:22:23.943Z,64.04
2018-10-07T22:24:54.559Z,64.11
2018-10-07T22:27:25.230Z,63.69
2018-10-07T22:29:55.871Z,64.21
2018-10-07T22:32:26.524Z,64.39
2018-10-07T22:34:57.139Z,64.60
2018-10-07T22:37:27.761Z,64.66
2018-10-07T22:39:58.367Z,64.83
2018-10-07T22:42:29.048Z,64.91
2018-10-07T22:44:59.637Z,64.93
2018-10-07T22:47:30.279Z,65.46
2018-10-07T22:50:00.936Z,65.75
2018-10-07T22:52:31.549Z,65.82
2018-10-07T22:55:02.180Z,65.54
2018-10-07T22:57:32.795Z,65.59
2018-10-07T23:00:03.434Z,65.94
2018-10-07T23:02:34.080Z,65.98
2018-10-07T23:05:05.500Z,65.99
2018-10-07T23:07:36.328Z,66.37
2018-10-07T23:10:07.249Z,66.48
2018-10-07T23:12:37.925Z,66.27
2018-10-07T23:15:08.626Z,66.37
2018-10-07T23:17:39.252Z,66.53
2018-10-07T23:20:10.005Z,66.80
2018-10-07T23:22:40.972Z,66.73
2018-10-07T23:25:11.663Z,67.07
2018-10-07T23:27:42.282Z,67.25
2018-10-07T23:30:12.913Z,67.82
2018-10-07T23:32:43.527Z,67.70
2018-10-07T23:35:14.246Z,67.72
2018-10-07T23:37:44.871Z,67.72
2018-10-07T23:40:15.583Z,67.79
2018-10-07T23:42:46.212Z,67.86
2018-10-07T23:45:16.856Z,67.67
2018-10-07T23:47:47.544Z,67.65
2018-10-07T23:50:18.212Z,67.97
2018-10-07T23:52:48.899Z,67.38
2018-10-07T23:55:19.521Z,67.23
2018-10-07T23:57:50.204Z,67.39
